sensor_id;sensor_type;location;lat;lon;timestamp;temperature;humidity
10143;DHT22;5112;54.088;13.446;2022-12-18T00:01:24;-7.40;99.90
10143;DHT22;5112;54.088;13.446;2022-12-18T00:11:28;-7.80;99.90
10143;DHT22;5112;54.088;13.446;2022-12-18T00:21:32;-8.00;99.90
10143;DHT22;5112;54.088;13.446;2022-12-18T00:31:34;-7.90;99.90
10143;DHT22;5112;54.088;13.446;2022-12-18T00:41:37;-7.80;99.90
10143;DHT22;5112;54.088;13.446;2022-12-18T00:51:56;-7.70;99.90
10143;DHT22;5112;54.088;13.446;2022-12-18T01:01:59;-7.60;99.90
10143;DHT22;5112;54.088;13.446;2022-12-18T01:12:01;-7.30;99.90
10143;DHT22;5112;54.088;13.446;2022-12-18T01:22:04;-7.00;99.90
10143;DHT22;5112;54.088;13.446;2022-12-18T01:32:06;-7.10;99.90
10143;DHT22;5112;54.088;13.446;2022-12-18T01:42:12;-7.00;99.90
10143;DHT22;5112;54.088;13.446;2022-12-18T01:52:15;-6.90;99.90
10143;DHT22;5112;54.088;13.446;2022-12-18T02:02:20;-6.90;99.90
10143;DHT22;5112;54.088;13.446;2022-12-18T02:12:23;-6.90;99.90
10143;DHT22;5112;54.088;13.446;2022-12-18T02:22:33;-6.90;99.90
10143;DHT22;5112;54.088;13.446;2022-12-18T02:32:40;-6.90;99.90
10143;DHT22;5112;54.088;13.446;2022-12-18T02:42:42;-6.90;99.90
10143;DHT22;5112;54.088;13.446;2022-12-18T02:52:53;-6.90;99.90
10143;DHT22;5112;54.088;13.446;2022-12-18T03:02:59;-7.00;99.90
10143;DHT22;5112;54.088;13.446;2022-12-18T03:13:07;-7.10;99.90
10143;DHT22;5112;54.088;13.446;2022-12-18T03:23:14;-7.20;99.90
10143;DHT22;5112;54.088;13.446;2022-12-18T03:33:21;-7.20;99.90
10143;DHT22;5112;54.088;13.446;2022-12-18T03:43:34;-7.10;99.90
10143;DHT22;5112;54.088;13.446;2022-12-18T03:53:43;-7.30;99.90
10143;DHT22;5112;54.088;13.446;2022-12-18T04:03:48;-7.30;99.90
10143;DHT22;5112;54.088;13.446;2022-12-18T04:13:55;-7.60;99.90
10143;DHT22;5112;54.088;13.446;2022-12-18T04:23:57;-7.50;99.90
10143;DHT22;5112;54.088;13.446;2022-12-18T04:34:00;-7.60;99.90
10143;DHT22;5112;54.088;13.446;2022-12-18T04:44:03;-7.40;99.90
10143;DHT22;5112;54.088;13.446;2022-12-18T04:54:06;-7.60;99.90
10143;DHT22;5112;54.088;13.446;2022-12-18T05:04:07;-7.60;99.90
10143;DHT22;5112;54.088;13.446;2022-12-18T05:14:10;-7.70;99.90
10143;DHT22;5112;54.088;13.446;2022-12-18T05:24:12;-7.70;99.90
10143;DHT22;5112;54.088;13.446;2022-12-18T05:34:15;-7.50;99.90
10143;DHT22;5112;54.088;13.446;2022-12-18T05:44:17;-7.40;99.90
10143;DHT22;5112;54.088;13.446;2022-12-18T05:54:20;-7.60;99.90
10143;DHT22;5112;54.088;13.446;2022-12-18T06:04:22;-7.60;99.90
10143;DHT22;5112;54.088;13.446;2022-12-18T06:14:25;-7.50;99.90
10143;DHT22;5112;54.088;13.446;2022-12-18T06:24:27;-7.50;99.90
10143;DHT22;5112;54.088;13.446;2022-12-18T06:34:31;-7.30;99.90
10143;DHT22;5112;54.088;13.446;2022-12-18T06:44:33;-7.50;99.90
10143;DHT22;5112;54.088;13.446;2022-12-18T06:54:36;-7.80;99.90
10143;DHT22;5112;54.088;13.446;2022-12-18T07:04:38;-7.90;99.90
10143;DHT22;5112;54.088;13.446;2022-12-18T07:14:41;-7.90;99.90
10143;DHT22;5112;54.088;13.446;2022-12-18T07:24:42;-7.80;99.90
10143;DHT22;5112;54.088;13.446;2022-12-18T07:34:45;-7.90;99.90
10143;DHT22;5112;54.088;13.446;2022-12-18T07:44:47;-7.90;99.90
10143;DHT22;5112;54.088;13.446;2022-12-18T07:54:50;-7.90;99.90
10143;DHT22;5112;54.088;13.446;2022-12-18T08:04:52;-7.80;99.90
10143;DHT22;5112;54.088;13.446;2022-12-18T08:14:55;-7.80;99.90
10143;DHT22;5112;54.088;13.446;2022-12-18T08:24:57;-7.60;99.90
10143;DHT22;5112;54.088;13.446;2022-12-18T08:35:00;-7.40;99.90
10143;DHT22;5112;54.088;13.446;2022-12-18T08:45:02;-7.30;99.90
10143;DHT22;5112;54.088;13.446;2022-12-18T08:55:07;-7.20;99.90
10143;DHT22;5112;54.088;13.446;2022-12-18T09:05:09;-7.10;99.90
10143;DHT22;5112;54.088;13.446;2022-12-18T09:15:12;-7.00;99.90
10143;DHT22;5112;54.088;13.446;2022-12-18T09:25:14;-6.90;99.90
10143;DHT22;5112;54.088;13.446;2022-12-18T09:35:17;-6.60;99.90
10143;DHT22;5112;54.088;13.446;2022-12-18T09:45:19;-6.20;99.90
10143;DHT22;5112;54.088;13.446;2022-12-18T09:55:25;-5.70;99.90
10143;DHT22;5112;54.088;13.446;2022-12-18T10:05:35;-5.40;99.90
10143;DHT22;5112;54.088;13.446;2022-12-18T10:15:51;-5.20;99.90
10143;DHT22;5112;54.088;13.446;2022-12-18T10:26:00;-5.00;99.90
10143;DHT22;5112;54.088;13.446;2022-12-18T10:36:05;-4.70;99.90
10143;DHT22;5112;54.088;13.446;2022-12-18T10:46:13;-4.40;99.90
10143;DHT22;5112;54.088;13.446;2022-12-18T10:56:20;-4.40;99.90
10143;DHT22;5112;54.088;13.446;2022-12-18T11:06:24;-4.50;99.90
10143;DHT22;5112;54.088;13.446;2022-12-18T11:16:28;-4.20;99.90
10143;DHT22;5112;54.088;13.446;2022-12-18T11:26:34;-3.90;99.90
10143;DHT22;5112;54.088;13.446;2022-12-18T11:36:42;-3.90;99.90
10143;DHT22;5112;54.088;13.446;2022-12-18T11:46:47;-3.90;99.90
10143;DHT22;5112;54.088;13.446;2022-12-18T11:56:56;-3.90;99.90
10143;DHT22;5112;54.088;13.446;2022-12-18T12:07:10;-4.00;99.90
10143;DHT22;5112;54.088;13.446;2022-12-18T12:17:24;-3.70;99.90
10143;DHT22;5112;54.088;13.446;2022-12-18T12:27:37;-3.80;99.90
10143;DHT22;5112;54.088;13.446;2022-12-18T12:37:51;-3.90;99.90
10143;DHT22;5112;54.088;13.446;2022-12-18T12:47:57;-4.10;99.90
10143;DHT22;5112;54.088;13.446;2022-12-18T12:58:05;-4.30;99.90
10143;DHT22;5112;54.088;13.446;2022-12-18T13:08:09;-4.50;99.90
10143;DHT22;5112;54.088;13.446;2022-12-18T13:18:15;-4.40;99.90
10143;DHT22;5112;54.088;13.446;2022-12-18T13:49:39;-4.40;99.90
10143;DHT22;5112;54.088;13.446;2022-12-18T13:59:41;-4.60;99.90
10143;DHT22;5112;54.088;13.446;2022-12-18T14:09:46;-4.90;99.90
10143;DHT22;5112;54.088;13.446;2022-12-18T14:19:51;-5.00;99.90
10143;DHT22;5112;54.088;13.446;2022-12-18T14:29:54;-5.20;99.90
10143;DHT22;5112;54.088;13.446;2022-12-18T14:39:58;-5.30;99.90
10143;DHT22;5112;54.088;13.446;2022-12-18T14:50:01;-5.40;99.90
10143;DHT22;5112;54.088;13.446;2022-12-18T15:00:07;-5.60;99.90
10143;DHT22;5112;54.088;13.446;2022-12-18T15:10:13;-5.70;99.90
10143;DHT22;5112;54.088;13.446;2022-12-18T15:20:15;-5.80;99.90
10143;DHT22;5112;54.088;13.446;2022-12-18T15:30:21;-5.70;99.90
10143;DHT22;5112;54.088;13.446;2022-12-18T15:40:23;-5.60;99.90
10143;DHT22;5112;54.088;13.446;2022-12-18T15:50:26;-5.50;99.90
10143;DHT22;5112;54.088;13.446;2022-12-18T16:00:28;-5.40;99.90
10143;DHT22;5112;54.088;13.446;2022-12-18T16:10:31;-5.20;99.90
10143;DHT22;5112;54.088;13.446;2022-12-18T16:20:33;-5.20;99.90
10143;DHT22;5112;54.088;13.446;2022-12-18T16:30:36;-5.00;99.90
10143;DHT22;5112;54.088;13.446;2022-12-18T16:40:38;-5.00;99.90
10143;DHT22;5112;54.088;13.446;2022-12-18T16:51:04;-4.90;99.90
10143;DHT22;5112;54.088;13.446;2022-12-18T17:01:07;-4.80;99.90
10143;DHT22;5112;54.088;13.446;2022-12-18T17:11:10;-4.50;99.90
10143;DHT22;5112;54.088;13.446;2022-12-18T17:21:13;-4.50;99.90
10143;DHT22;5112;54.088;13.446;2022-12-18T17:31:19;-4.40;99.90
10143;DHT22;5112;54.088;13.446;2022-12-18T17:41:21;-4.40;99.90
10143;DHT22;5112;54.088;13.446;2022-12-18T17:51:24;-4.40;99.90
10143;DHT22;5112;54.088;13.446;2022-12-18T18:01:26;-4.30;99.90
10143;DHT22;5112;54.088;13.446;2022-12-18T18:11:29;-4.40;99.90
10143;DHT22;5112;54.088;13.446;2022-12-18T18:21:49;-4.30;99.90
10143;DHT22;5112;54.088;13.446;2022-12-18T18:31:53;-4.30;99.90
10143;DHT22;5112;54.088;13.446;2022-12-18T18:41:55;-4.40;99.90
10143;DHT22;5112;54.088;13.446;2022-12-18T18:51:58;-4.40;99.90
10143;DHT22;5112;54.088;13.446;2022-12-18T19:02:02;-4.30;99.90
10143;DHT22;5112;54.088;13.446;2022-12-18T19:12:05;-4.40;99.90
10143;DHT22;5112;54.088;13.446;2022-12-18T19:22:24;-4.20;99.90
10143;DHT22;5112;54.088;13.446;2022-12-18T19:32:27;-4.30;99.90
10143;DHT22;5112;54.088;13.446;2022-12-18T19:42:29;-4.20;99.90
10143;DHT22;5112;54.088;13.446;2022-12-18T19:52:32;-4.20;99.90
10143;DHT22;5112;54.088;13.446;2022-12-18T20:02:33;-4.20;99.90
10143;DHT22;5112;54.088;13.446;2022-12-18T20:12:37;-4.20;99.90
10143;DHT22;5112;54.088;13.446;2022-12-18T20:22:39;-4.10;99.90
10143;DHT22;5112;54.088;13.446;2022-12-18T20:32:42;-4.10;99.90
10143;DHT22;5112;54.088;13.446;2022-12-18T20:42:44;-4.20;99.90
10143;DHT22;5112;54.088;13.446;2022-12-18T20:52:47;-4.10;99.90
10143;DHT22;5112;54.088;13.446;2022-12-18T21:02:49;-4.20;99.90
10143;DHT22;5112;54.088;13.446;2022-12-18T21:12:52;-4.20;99.90
10143;DHT22;5112;54.088;13.446;2022-12-18T21:22:54;-4.20;99.90
10143;DHT22;5112;54.088;13.446;2022-12-18T21:32:57;-4.20;99.90
10143;DHT22;5112;54.088;13.446;2022-12-18T21:42:58;-4.20;99.90
10143;DHT22;5112;54.088;13.446;2022-12-18T21:53:19;-4.30;99.90
10143;DHT22;5112;54.088;13.446;2022-12-18T22:03:21;-4.30;99.90
10143;DHT22;5112;54.088;13.446;2022-12-18T22:13:24;-4.30;99.90
10143;DHT22;5112;54.088;13.446;2022-12-18T22:23:25;-4.30;99.90
10143;DHT22;5112;54.088;13.446;2022-12-18T22:33:28;-4.30;99.90
10143;DHT22;5112;54.088;13.446;2022-12-18T22:43:30;-4.30;99.90
10143;DHT22;5112;54.088;13.446;2022-12-18T22:53:34;-4.20;99.90
10143;DHT22;5112;54.088;13.446;2022-12-18T23:03:35;-4.10;99.90
10143;DHT22;5112;54.088;13.446;2022-12-18T23:13:39;-4.10;99.90
10143;DHT22;5112;54.088;13.446;2022-12-18T23:23:42;-4.20;99.90
10143;DHT22;5112;54.088;13.446;2022-12-18T23:33:46;-4.10;99.90
10143;DHT22;5112;54.088;13.446;2022-12-18T23:43:48;-4.10;99.90
10143;DHT22;5112;54.088;13.446;2022-12-18T23:53:51;-4.00;99.90
